sensor_id;sensor_type;location;lat;lon;timestamp;pressure;altitude;pressure_sealevel;temperature;humidity
44734;BME280;30462;52.446;-1.930;2023-05-10T00:00:18;99732.70703;;;;
44734;BME280;30462;52.446;-1.930;2023-05-10T00:01:18;99734.26172;;;;
44734;BME280;30462;52.446;-1.930;2023-05-10T00:02:18;99732.62109;;;;
44734;BME280;30462;52.446;-1.930;2023-05-10T00:03:18;99733.17188;;;;
44734;BME280;30462;52.446;-1.930;2023-05-10T00:04:17;99730.45703;;;;
44734;BME280;30462;52.446;-1.930;2023-05-10T00:05:18;99730.76172;;;;
44734;BME280;30462;52.446;-1.930;2023-05-10T00:06:18;99734.48438;;;;
44734;BME280;30462;52.446;-1.930;2023-05-10T00:07:18;99731.66016;;;;
44734;BME280;30462;52.446;-1.930;2023-05-10T00:08:17;99736.47266;;;;
44734;BME280;30462;52.446;-1.930;2023-05-10T00:09:18;99732.39453;;;;
44734;BME280;30462;52.446;-1.930;2023-05-10T00:10:18;99735.75781;;;;
44734;BME280;30462;52.446;-1.930;2023-05-10T00:11:18;99736.96094;;;;
44734;BME280;30462;52.446;-1.930;2023-05-10T00:12:18;99736.21875;;;;
44734;BME280;30462;52.446;-1.930;2023-05-10T00:13:18;99733.83594;;;;
44734;BME280;30462;52.446;-1.930;2023-05-10T00:14:18;99739.21875;;;;
44734;BME280;30462;52.446;-1.930;2023-05-10T00:15:18;99736.15625;;;;
44734;BME280;30462;52.446;-1.930;2023-05-10T00:16:18;99741.26563;;;;
44734;BME280;30462;52.446;-1.930;2023-05-10T00:17:18;99737.875;;;;
44734;BME280;30462;52.446;-1.930;2023-05-10T00:18:18;99737.26953;;;;
44734;BME280;30462;52.446;-1.930;2023-05-10T00:19:18;99739.07813;;;;
44734;BME280;30462;52.446;-1.930;2023-05-10T00:20:18;99737.875;;;;
44734;BME280;30462;52.446;-1.930;2023-05-10T00:21:17;99740.00781;;;;
44734;BME280;30462;52.446;-1.930;2023-05-10T00:22:18;99739;;;;
44734;BME280;30462;52.446;-1.930;2023-05-10T00:23:18;99738.25781;;;;
44734;BME280;30462;52.446;-1.930;2023-05-10T00:24:18;99740.35938;;;;
44734;BME280;30462;52.446;-1.930;2023-05-10T00:25:18;99738.73828;;;;
44734;BME280;30462;52.446;-1.930;2023-05-10T00:26:18;99738.82813;;;;
44734;BME280;30462;52.446;-1.930;2023-05-10T00:27:17;99742.87109;;;;
44734;BME280;30462;52.446;-1.930;2023-05-10T00:28:18;99739.75391;;;;
44734;BME280;30462;52.446;-1.930;2023-05-10T00:29:18;99740.04688;;;;
44734;BME280;30462;52.446;-1.930;2023-05-10T00:30:18;99739.33984;;;;
44734;BME280;30462;52.446;-1.930;2023-05-10T00:31:18;99736.82422;;;;
44734;BME280;30462;52.446;-1.930;2023-05-10T00:32:18;99740.26953;;;;
44734;BME280;30462;52.446;-1.930;2023-05-10T00:33:17;99738.62891;;;;
44734;BME280;30462;52.446;-1.930;2023-05-10T00:34:18;99738.19141;;;;
44734;BME280;30462;52.446;-1.930;2023-05-10T00:35:18;99735.18359;;;;
44734;BME280;30462;52.446;-1.930;2023-05-10T00:36:18;99733.37891;;;;
44734;BME280;30462;52.446;-1.930;2023-05-10T00:37:18;99732.83203;;;;
44734;BME280;30462;52.446;-1.930;2023-05-10T00:38:18;99731.77344;;;;
44734;BME280;30462;52.446;-1.930;2023-05-10T00:39:18;99731.41016;;;;
44734;BME280;30462;52.446;-1.930;2023-05-10T00:40:18;99727.64063;;;;
44734;BME280;30462;52.446;-1.930;2023-05-10T00:41:17;99728.16406;;;;
44734;BME280;30462;52.446;-1.930;2023-05-10T00:42:18;99726.44531;;;;
44734;BME280;30462;52.446;-1.930;2023-05-10T00:43:18;99724.58203;;;;
44734;BME280;30462;52.446;-1.930;2023-05-10T00:44:18;99725.86719;;;;
44734;BME280;30462;52.446;-1.930;2023-05-10T00:45:18;99725.44922;;;;
44734;BME280;30462;52.446;-1.930;2023-05-10T00:46:18;99724.76172;;;;
44734;BME280;30462;52.446;-1.930;2023-05-10T00:47:17;99722.13672;;;;
44734;BME280;30462;52.446;-1.930;2023-05-10T00:48:17;99727.64063;;;;
44734;BME280;30462;52.446;-1.930;2023-05-10T00:49:17;99724.43359;;;;
44734;BME280;30462;52.446;-1.930;2023-05-10T00:50:18;99725.80078;;;;
44734;BME280;30462;52.446;-1.930;2023-05-10T00:51:18;99726.34375;;;;
44734;BME280;30462;52.446;-1.930;2023-05-10T00:52:17;99728.00781;;;;
44734;BME280;30462;52.446;-1.930;2023-05-10T00:53:18;99725.32813;;;;
44734;BME280;30462;52.446;-1.930;2023-05-10T00:54:17;99727.57031;;;;
44734;BME280;30462;52.446;-1.930;2023-05-10T00:55:18;99727.44141;;;;
44734;BME280;30462;52.446;-1.930;2023-05-10T00:56:18;99726.07422;;;;
44734;BME280;30462;52.446;-1.930;2023-05-10T00:57:18;99726.29297;;;;
44734;BME280;30462;52.446;-1.930;2023-05-10T00:58:18;99725.19922;;;;
44734;BME280;30462;52.446;-1.930;2023-05-10T00:59:18;99726.42188;;;;
44734;BME280;30462;52.446;-1.930;2023-05-10T01:00:18;99726.20313;;;;
44734;BME280;30462;52.446;-1.930;2023-05-10T01:01:17;99726.3125;;;;
44734;BME280;30462;52.446;-1.930;2023-05-10T01:02:18;99725.60156;;;;
44734;BME280;30462;52.446;-1.930;2023-05-10T01:03:17;99726.80469;;;;
44734;BME280;30462;52.446;-1.930;2023-05-10T01:04:18;99724.78125;;;;
44734;BME280;30462;52.446;-1.930;2023-05-10T01:05:18;99727.86328;;;;
44734;BME280;30462;52.446;-1.930;2023-05-10T01:06:18;99729.41797;;;;
44734;BME280;30462;52.446;-1.930;2023-05-10T01:07:18;99724.91406;;;;
44734;BME280;30462;52.446;-1.930;2023-05-10T01:08:18;99730.5625;;;;
44734;BME280;30462;52.446;-1.930;2023-05-10T01:09:18;99729.96094;;;;
44734;BME280;30462;52.446;-1.930;2023-05-10T01:10:18;99729.08594;;;;
44734;BME280;30462;52.446;-1.930;2023-05-10T01:11:18;99725.28125;;;;
44734;BME280;30462;52.446;-1.930;2023-05-10T01:12:18;99725.71484;;;;
44734;BME280;30462;52.446;-1.930;2023-05-10T01:13:27;99725.71484;;;;
44734;BME280;30462;52.446;-1.930;2023-05-10T01:14:18;99722.56641;;;;
44734;BME280;30462;52.446;-1.930;2023-05-10T01:15:18;99724.53516;;;;
44734;BME280;30462;52.446;-1.930;2023-05-10T01:16:17;99725.64453;;;;
44734;BME280;30462;52.446;-1.930;2023-05-10T01:17:18;99728.32422;;;;
44734;BME280;30462;52.446;-1.930;2023-05-10T01:18:17;99723.95313;;;;
44734;BME280;30462;52.446;-1.930;2023-05-10T01:19:19;99724.37109;;;;
44734;BME280;30462;52.446;-1.930;2023-05-10T01:20:18;99727.23047;;;;
44734;BME280;30462;52.446;-1.930;2023-05-10T01:21:21;99723.29688;;;;
44734;BME280;30462;52.446;-1.930;2023-05-10T01:27:20;99731.91406;;;;
44734;BME280;30462;52.446;-1.930;2023-05-10T01:31:22;99730.17969;;;;
44734;BME280;30462;52.446;-1.930;2023-05-10T01:32:21;99727.33594;;;;
44734;BME280;30462;52.446;-1.930;2023-05-10T01:33:18;99731.92969;;;;
44734;BME280;30462;52.446;-1.930;2023-05-10T01:34:19;99730.89063;;;;
44734;BME280;30462;52.446;-1.930;2023-05-10T01:35:19;99730.85156;;;;
44734;BME280;30462;52.446;-1.930;2023-05-10T01:36:20;99729.65234;;;;
44734;BME280;30462;52.446;-1.930;2023-05-10T01:37:19;99731.01953;;;;
44734;BME280;30462;52.446;-1.930;2023-05-10T01:38:21;99731.72656;;;;
44734;BME280;30462;52.446;-1.930;2023-05-10T01:39:20;99729.26953;;;;
44734;BME280;30462;52.446;-1.930;2023-05-10T01:40:19;99730.36328;;;;
44734;BME280;30462;52.446;-1.930;2023-05-10T01:41:19;99730.08594;;;;
44734;BME280;30462;52.446;-1.930;2023-05-10T01:42:19;99732.05469;;;;
44734;BME280;30462;52.446;-1.930;2023-05-10T01:43:21;99731.74219;;;;
44734;BME280;30462;52.446;-1.930;2023-05-10T01:44:22;99730.43359;;;;
44734;BME280;30462;52.446;-1.930;2023-05-10T01:45:19;99734.25781;;;;
44734;BME280;30462;52.446;-1.930;2023-05-10T01:46:23;99733.10547;;;;
44734;BME280;30462;52.446;-1.930;2023-05-10T01:47:20;99732.61328;;;;
44734;BME280;30462;52.446;-1.930;2023-05-10T01:48:18;99736.07422;;;;
44734;BME280;30462;52.446;-1.930;2023-05-10T01:49:19;99735.46875;;;;
44734;BME280;30462;52.446;-1.930;2023-05-10T01:50:19;99740.01953;;;;
44734;BME280;30462;52.446;-1.930;2023-05-10T01:51:19;99735.8125;;;;
44734;BME280;30462;52.446;-1.930;2023-05-10T01:52:19;99735.88281;;;;
44734;BME280;30462;52.446;-1.930;2023-05-10T01:53:18;99736.60547;;;;
44734;BME280;30462;52.446;-1.930;2023-05-10T01:54:19;99734.94141;;;;
44734;BME280;30462;52.446;-1.930;2023-05-10T01:55:18;99732.16797;;;;
44734;BME280;30462;52.446;-1.930;2023-05-10T01:56:18;99732.25781;;;;
44734;BME280;30462;52.446;-1.930;2023-05-10T01:57:18;99733.24609;;;;
44734;BME280;30462;52.446;-1.930;2023-05-10T01:58:19;99729.46094;;;;
44734;BME280;30462;52.446;-1.930;2023-05-10T01:59:18;99729.07813;;;;
44734;BME280;30462;52.446;-1.930;2023-05-10T02:00:17;99726.19922;;;;
44734;BME280;30462;52.446;-1.930;2023-05-10T02:01:18;99726.64063;;;;
44734;BME280;30462;52.446;-1.930;2023-05-10T02:02:18;99723.96094;;;;
44734;BME280;30462;52.446;-1.930;2023-05-10T02:03:18;99725;;;;
44734;BME280;30462;52.446;-1.930;2023-05-10T02:04:18;99726.58203;;;;
44734;BME280;30462;52.446;-1.930;2023-05-10T02:05:18;99727.13281;;;;
44734;BME280;30462;52.446;-1.930;2023-05-10T02:06:18;99724.84766;;;;
44734;BME280;30462;52.446;-1.930;2023-05-10T02:07:18;99723.31641;;;;
44734;BME280;30462;52.446;-1.930;2023-05-10T02:08:17;99726.42969;;;;
44734;BME280;30462;52.446;-1.930;2023-05-10T02:09:18;99731.50781;;;;
44734;BME280;30462;52.446;-1.930;2023-05-10T02:10:18;99729.86719;;;;
44734;BME280;30462;52.446;-1.930;2023-05-10T02:11:18;99731.14453;;;;
44734;BME280;30462;52.446;-1.930;2023-05-10T02:12:17;99731.6875;;;;
44734;BME280;30462;52.446;-1.930;2023-05-10T02:13:18;99734.47266;;;;
44734;BME280;30462;52.446;-1.930;2023-05-10T02:14:18;99733.75781;;;;
44734;BME280;30462;52.446;-1.930;2023-05-10T02:15:19;99732.13672;;;;
44734;BME280;30462;52.446;-1.930;2023-05-10T02:16:18;99729.35156;;;;
44734;BME280;30462;52.446;-1.930;2023-05-10T02:17:18;99727.72656;;;;
44734;BME280;30462;52.446;-1.930;2023-05-10T02:18:18;99729.29688;;;;
44734;BME280;30462;52.446;-1.930;2023-05-10T02:19:18;99726.6875;;;;
44734;BME280;30462;52.446;-1.930;2023-05-10T02:20:18;99730.83594;;;;
44734;BME280;30462;52.446;-1.930;2023-05-10T02:21:19;99731.92969;;;;
44734;BME280;30462;52.446;-1.930;2023-05-10T02:22:18;99732.25781;;;;
44734;BME280;30462;52.446;-1.930;2023-05-10T02:23:18;99735.53516;;;;
44734;BME280;30462;52.446;-1.930;2023-05-10T02:24:18;99733.38672;;;;
44734;BME280;30462;52.446;-1.930;2023-05-10T02:25:18;99735.30859;;;;
44734;BME280;30462;52.446;-1.930;2023-05-10T02:26:17;99734.59375;;;;
44734;BME280;30462;52.446;-1.930;2023-05-10T02:27:18;99736.83203;;;;
44734;BME280;30462;52.446;-1.930;2023-05-10T02:28:18;99735.08203;;;;
44734;BME280;30462;52.446;-1.930;2023-05-10T02:29:18;99733.63672;;;;
44734;BME280;30462;52.446;-1.930;2023-05-10T02:30:18;99733.52344;;;;
44734;BME280;30462;52.446;-1.930;2023-05-10T02:31:18;99735.97656;;;;
44734;BME280;30462;52.446;-1.930;2023-05-10T02:32:18;99735.85938;;;;
44734;BME280;30462;52.446;-1.930;2023-05-10T02:33:18;99733.50781;;;;
44734;BME280;30462;52.446;-1.930;2023-05-10T02:34:18;99732.86328;;;;
44734;BME280;30462;52.446;-1.930;2023-05-10T02:35:18;99733.07813;;;;
44734;BME280;30462;52.446;-1.930;2023-05-10T02:36:17;99732.49219;;;;
44734;BME280;30462;52.446;-1.930;2023-05-10T02:37:18;99738.26953;;;;
44734;BME280;30462;52.446;-1.930;2023-05-10T02:38:18;99741.39063;;;;
44734;BME280;30462;52.446;-1.930;2023-05-10T02:39:18;99742.26172;;;;
44734;BME280;30462;52.446;-1.930;2023-05-10T02:40:18;99741.49609;;;;
44734;BME280;30462;52.446;-1.930;2023-05-10T02:41:18;99742.32422;;;;
44734;BME280;30462;52.446;-1.930;2023-05-10T02:42:18;99744.54688;;;;
44734;BME280;30462;52.446;-1.930;2023-05-10T02:43:18;99744.88281;;;;
44734;BME280;30462;52.446;-1.930;2023-05-10T02:44:18;99745.50391;;;;
44734;BME280;30462;52.446;-1.930;2023-05-10T02:45:19;99744.95313;;;;
44734;BME280;30462;52.446;-1.930;2023-05-10T02:46:18;99744.68359;;;;
44734;BME280;30462;52.446;-1.930;2023-05-10T02:47:18;99746.21875;;;;
44734;BME280;30462;52.446;-1.930;2023-05-10T02:48:18;99746.69922;;;;
44734;BME280;30462;52.446;-1.930;2023-05-10T02:49:17;99744.94922;;;;
44734;BME280;30462;52.446;-1.930;2023-05-10T02:50:18;99745.67578;;;;
44734;BME280;30462;52.446;-1.930;2023-05-10T02:51:18;99746.03906;;;;
44734;BME280;30462;52.446;-1.930;2023-05-10T02:52:19;99745.72266;;;;
44734;BME280;30462;52.446;-1.930;2023-05-10T02:53:22;99745.77344;;;;
44734;BME280;30462;52.446;-1.930;2023-05-10T02:54:18;99746.65234;;;;
44734;BME280;30462;52.446;-1.930;2023-05-10T02:55:19;99747.48438;;;;
44734;BME280;30462;52.446;-1.930;2023-05-10T02:56:25;99742.84375;;;;
44734;BME280;30462;52.446;-1.930;2023-05-10T02:57:20;99743.16797;;;;
44734;BME280;30462;52.446;-1.930;2023-05-10T02:58:18;99743.42969;;;;
44734;BME280;30462;52.446;-1.930;2023-05-10T02:59:18;99743.49219;;;;
44734;BME280;30462;52.446;-1.930;2023-05-10T03:00:18;99744.90234;;;;
44734;BME280;30462;52.446;-1.930;2023-05-10T03:01:18;99746.76172;;;;
44734;BME280;30462;52.446;-1.930;2023-05-10T03:02:18;99745.56641;;;;
44734;BME280;30462;52.446;-1.930;2023-05-10T03:03:18;99749.88281;;;;
44734;BME280;30462;52.446;-1.930;2023-05-10T03:04:18;99749.17188;;;;
44734;BME280;30462;52.446;-1.930;2023-05-10T03:05:18;99748.66797;;;;
44734;BME280;30462;52.446;-1.930;2023-05-10T03:06:18;99751.73828;;;;
44734;BME280;30462;52.446;-1.930;2023-05-10T03:07:18;99750.05469;;;;
44734;BME280;30462;52.446;-1.930;2023-05-10T03:08:17;99754.96094;;;;
44734;BME280;30462;52.446;-1.930;2023-05-10T03:09:18;99755.95313;;;;
44734;BME280;30462;52.446;-1.930;2023-05-10T03:10:17;99752.61328;;;;
44734;BME280;30462;52.446;-1.930;2023-05-10T03:12:23;99751.15234;;;;
44734;BME280;30462;52.446;-1.930;2023-05-10T03:13:21;99747.87109;;;;
44734;BME280;30462;52.446;-1.930;2023-05-10T03:15:22;99750.71875;;;;
44734;BME280;30462;52.446;-1.930;2023-05-10T03:16:22;99753.66797;;;;
44734;BME280;30462;52.446;-1.930;2023-05-10T03:17:21;99747.05469;;;;
44734;BME280;30462;52.446;-1.930;2023-05-10T03:18:20;99751.26172;;;;
44734;BME280;30462;52.446;-1.930;2023-05-10T03:19:24;99747.87891;;;;
44734;BME280;30462;52.446;-1.930;2023-05-10T03:20:21;99744.59766;;;;
44734;BME280;30462;52.446;-1.930;2023-05-10T03:21:18;99745.48438;;;;
44734;BME280;30462;52.446;-1.930;2023-05-10T03:22:20;99744.94141;;;;
44734;BME280;30462;52.446;-1.930;2023-05-10T03:23:21;99744.5;;;;
44734;BME280;30462;52.446;-1.930;2023-05-10T03:24:18;99742.35938;;;;
44734;BME280;30462;52.446;-1.930;2023-05-10T03:25:18;99745.41797;;;;
44734;BME280;30462;52.446;-1.930;2023-05-10T03:26:20;99744.33984;;;;
44734;BME280;30462;52.446;-1.930;2023-05-10T03:27:17;99742.97266;;;;
44734;BME280;30462;52.446;-1.930;2023-05-10T03:28:18;99744.53906;;;;
44734;BME280;30462;52.446;-1.930;2023-05-10T03:29:18;99742.30859;;;;
44734;BME280;30462;52.446;-1.930;2023-05-10T03:30:18;99741.01172;;;;
44734;BME280;30462;52.446;-1.930;2023-05-10T03:31:18;99741.16797;;;;
44734;BME280;30462;52.446;-1.930;2023-05-10T03:32:18;99742.09375;;;;
44734;BME280;30462;52.446;-1.930;2023-05-10T03:33:18;99743.30078;;;;
44734;BME280;30462;52.446;-1.930;2023-05-10T03:35:18;99743.73438;;;;
44734;BME280;30462;52.446;-1.930;2023-05-10T03:36:18;99744.66016;;;;
44734;BME280;30462;52.446;-1.930;2023-05-10T03:37:18;99744.27344;;;;
44734;BME280;30462;52.446;-1.930;2023-05-10T03:38:18;99746.89063;;;;
44734;BME280;30462;52.446;-1.930;2023-05-10T03:39:18;99746.71875;;;;
44734;BME280;30462;52.446;-1.930;2023-05-10T03:40:18;99744.77344;;;;
44734;BME280;30462;52.446;-1.930;2023-05-10T03:41:18;99745.31641;;;;
44734;BME280;30462;52.446;-1.930;2023-05-10T03:42:18;99748.43359;;;;
44734;BME280;30462;52.446;-1.930;2023-05-10T03:43:17;99747.21875;;;;
44734;BME280;30462;52.446;-1.930;2023-05-10T03:44:18;99746.89453;;;;
44734;BME280;30462;52.446;-1.930;2023-05-10T03:45:18;99747.87891;;;;
44734;BME280;30462;52.446;-1.930;2023-05-10T03:46:18;99747.82813;;;;
44734;BME280;30462;52.446;-1.930;2023-05-10T03:47:18;99752.19141;;;;
44734;BME280;30462;52.446;-1.930;2023-05-10T03:48:17;99751.10547;;;;
44734;BME280;30462;52.446;-1.930;2023-05-10T03:49:18;99753.72266;;;;
44734;BME280;30462;52.446;-1.930;2023-05-10T03:50:18;99755.67188;;;;
44734;BME280;30462;52.446;-1.930;2023-05-10T03:51:18;99755.83594;;;;
44734;BME280;30462;52.446;-1.930;2023-05-10T03:52:18;99756.65625;;;;
44734;BME280;30462;52.446;-1.930;2023-05-10T03:53:17;99754.27344;;;;
44734;BME280;30462;52.446;-1.930;2023-05-10T03:54:17;99756.32813;;;;
44734;BME280;30462;52.446;-1.930;2023-05-10T03:55:18;99755.94922;;;;
44734;BME280;30462;52.446;-1.930;2023-05-10T03:56:18;99758.57813;;;;
44734;BME280;30462;52.446;-1.930;2023-05-10T03:57:18;99757.42969;;;;
44734;BME280;30462;52.446;-1.930;2023-05-10T03:58:17;99758.5625;;;;
44734;BME280;30462;52.446;-1.930;2023-05-10T03:59:18;99755.39453;;;;
44734;BME280;30462;52.446;-1.930;2023-05-10T04:00:18;99759.33594;;;;
44734;BME280;30462;52.446;-1.930;2023-05-10T04:01:17;99755.45313;;;;
44734;BME280;30462;52.446;-1.930;2023-05-10T04:02:19;99759.71094;;;;
44734;BME280;30462;52.446;-1.930;2023-05-10T04:03:18;99756.54297;;;;
44734;BME280;30462;52.446;-1.930;2023-05-10T04:04:18;99758.12891;;;;
44734;BME280;30462;52.446;-1.930;2023-05-10T04:05:18;99758.55469;;;;
44734;BME280;30462;52.446;-1.930;2023-05-10T04:06:17;99759.70703;;;;
44734;BME280;30462;52.446;-1.930;2023-05-10T04:07:18;99757.91797;;;;
44734;BME280;30462;52.446;-1.930;2023-05-10T04:08:18;99758.1875;;;;
44734;BME280;30462;52.446;-1.930;2023-05-10T04:09:18;99758.67969;;;;
44734;BME280;30462;52.446;-1.930;2023-05-10T04:10:17;99759.66016;;;;
44734;BME280;30462;52.446;-1.930;2023-05-10T04:11:18;99760.19922;;;;
44734;BME280;30462;52.446;-1.930;2023-05-10T04:12:18;99762.49609;;;;
44734;BME280;30462;52.446;-1.930;2023-05-10T04:13:18;99758.625;;;;
44734;BME280;30462;52.446;-1.930;2023-05-10T04:14:18;99759.39063;;;;
44734;BME280;30462;52.446;-1.930;2023-05-10T04:15:17;99760.8125;;;;
44734;BME280;30462;52.446;-1.930;2023-05-10T04:16:17;99761.19141;;;;
44734;BME280;30462;52.446;-1.930;2023-05-10T04:17:18;99765.16406;;;;
44734;BME280;30462;52.446;-1.930;2023-05-10T04:18:18;99764.96094;;;;
44734;BME280;30462;52.446;-1.930;2023-05-10T04:19:18;99763.58203;;;;
44734;BME280;30462;52.446;-1.930;2023-05-10T04:20:18;99763.42188;;;;
44734;BME280;30462;52.446;-1.930;2023-05-10T04:21:18;99765.16797;;;;
44734;BME280;30462;52.446;-1.930;2023-05-10T04:22:18;99764.125;;;;
44734;BME280;30462;52.446;-1.930;2023-05-10T04:23:18;99766.09766;;;;
44734;BME280;30462;52.446;-1.930;2023-05-10T04:24:18;99765.98828;;;;
44734;BME280;30462;52.446;-1.930;2023-05-10T04:25:18;99767.29297;;;;
44734;BME280;30462;52.446;-1.930;2023-05-10T04:26:18;99767.35547;;;;
44734;BME280;30462;52.446;-1.930;2023-05-10T04:27:18;99768.60156;;;;
44734;BME280;30462;52.446;-1.930;2023-05-10T04:28:18;99770.02344;;;;
44734;BME280;30462;52.446;-1.930;2023-05-10T04:29:18;99770.74219;;;;
44734;BME280;30462;52.446;-1.930;2023-05-10T04:30:17;99771.16406;;;;
44734;BME280;30462;52.446;-1.930;2023-05-10T04:31:18;99771.0625;;;;
44734;BME280;30462;52.446;-1.930;2023-05-10T04:32:18;99771.94141;;;;
44734;BME280;30462;52.446;-1.930;2023-05-10T04:33:18;99770.57813;;;;
44734;BME280;30462;52.446;-1.930;2023-05-10T04:34:18;99769.63672;;;;
44734;BME280;30462;52.446;-1.930;2023-05-10T04:35:17;99771.22656;;;;
44734;BME280;30462;52.446;-1.930;2023-05-10T04:36:18;99773.02734;;;;
44734;BME280;30462;52.446;-1.930;2023-05-10T04:37:18;99773.69141;;;;
44734;BME280;30462;52.446;-1.930;2023-05-10T04:38:18;99772.80859;;;;
44734;BME280;30462;52.446;-1.930;2023-05-10T04:39:18;99770.79688;;;;
44734;BME280;30462;52.446;-1.930;2023-05-10T04:40:18;99769.43359;;;;
44734;BME280;30462;52.446;-1.930;2023-05-10T04:41:18;99773.18359;;;;
44734;BME280;30462;52.446;-1.930;2023-05-10T04:42:18;99772.64453;;;;
44734;BME280;30462;52.446;-1.930;2023-05-10T04:43:18;99774.00391;;;;
44734;BME280;30462;52.446;-1.930;2023-05-10T04:44:18;99775.75781;;;;
44734;BME280;30462;52.446;-1.930;2023-05-10T04:45:18;99779.88281;;;;
44734;BME280;30462;52.446;-1.930;2023-05-10T04:46:18;99776.99609;;;;
44734;BME280;30462;52.446;-1.930;2023-05-10T04:47:17;99779.12891;;;;
44734;BME280;30462;52.446;-1.930;2023-05-10T04:48:17;99781.32031;;;;
44734;BME280;30462;52.446;-1.930;2023-05-10T04:49:18;99784.74609;;;;
44734;BME280;30462;52.446;-1.930;2023-05-10T04:50:18;99779.44141;;;;
44734;BME280;30462;52.446;-1.930;2023-05-10T04:51:18;99781.89453;;;;
44734;BME280;30462;52.446;-1.930;2023-05-10T04:52:18;99776.99219;;;;
44734;BME280;30462;52.446;-1.930;2023-05-10T04:53:18;99778.80078;;;;
44734;BME280;30462;52.446;-1.930;2023-05-10T04:54:18;99779.60938;;;;
44734;BME280;30462;52.446;-1.930;2023-05-10T04:55:18;99776.78906;;;;
44734;BME280;30462;52.446;-1.930;2023-05-10T04:56:18;99771.9375;;;;
44734;BME280;30462;52.446;-1.930;2023-05-10T04:57:18;99771.00781;;;;
44734;BME280;30462;52.446;-1.930;2023-05-10T04:58:18;99777.07031;;;;
44734;BME280;30462;52.446;-1.930;2023-05-10T04:59:18;99769.80078;;;;
44734;BME280;30462;52.446;-1.930;2023-05-10T05:00:18;99776.69141;;;;
44734;BME280;30462;52.446;-1.930;2023-05-10T05:01:17;99775.49219;;;;
44734;BME280;30462;52.446;-1.930;2023-05-10T05:02:17;99779.03516;;;;
44734;BME280;30462;52.446;-1.930;2023-05-10T05:03:17;99780.0625;;;;
44734;BME280;30462;52.446;-1.930;2023-05-10T05:04:18;99780.99609;;;;
44734;BME280;30462;52.446;-1.930;2023-05-10T05:05:18;99781.32031;;;;
44734;BME280;30462;52.446;-1.930;2023-05-10T05:06:18;99782.25391;;;;
44734;BME280;30462;52.446;-1.930;2023-05-10T05:07:18;99783.98828;;;;
44734;BME280;30462;52.446;-1.930;2023-05-10T05:08:18;99784.93359;;;;
44734;BME280;30462;52.446;-1.930;2023-05-10T05:09:17;99781.48828;;;;
44734;BME280;30462;52.446;-1.930;2023-05-10T05:10:19;99783.33203;;;;
44734;BME280;30462;52.446;-1.930;2023-05-10T05:11:18;99782.40234;;;;
44734;BME280;30462;52.446;-1.930;2023-05-10T05:12:18;99784.26953;;;;
44734;BME280;30462;52.446;-1.930;2023-05-10T05:13:18;99788.26172;;;;
44734;BME280;30462;52.446;-1.930;2023-05-10T05:14:18;99788.90234;;;;
44734;BME280;30462;52.446;-1.930;2023-05-10T05:15:17;99788.25391;;;;
44734;BME280;30462;52.446;-1.930;2023-05-10T05:16:18;99790.43359;;;;
44734;BME280;30462;52.446;-1.930;2023-05-10T05:17:18;99789.78516;;;;
44734;BME280;30462;52.446;-1.930;2023-05-10T05:18:18;99788.29297;;;;
44734;BME280;30462;52.446;-1.930;2023-05-10T05:19:17;99793.15625;;;;
44734;BME280;30462;52.446;-1.930;2023-05-10T05:20:18;99792.05859;;;;
44734;BME280;30462;52.446;-1.930;2023-05-10T05:21:19;99795.70313;;;;
44734;BME280;30462;52.446;-1.930;2023-05-10T05:22:18;99794.06641;;;;
44734;BME280;30462;52.446;-1.930;2023-05-10T05:23:17;99791.72266;;;;
44734;BME280;30462;52.446;-1.930;2023-05-10T05:24:18;99794.02734;;;;
44734;BME280;30462;52.446;-1.930;2023-05-10T05:25:18;99794.19141;;;;
44734;BME280;30462;52.446;-1.930;2023-05-10T05:26:18;99799.26563;;;;
44734;BME280;30462;52.446;-1.930;2023-05-10T05:27:17;99794.33984;;;;
44734;BME280;30462;52.446;-1.930;2023-05-10T05:28:18;99794.4375;;;;
44734;BME280;30462;52.446;-1.930;2023-05-10T05:29:17;99795.30078;;;;
44734;BME280;30462;52.446;-1.930;2023-05-10T05:30:17;99795.02734;;;;
44734;BME280;30462;52.446;-1.930;2023-05-10T05:31:18;99792.52734;;;;
44734;BME280;30462;52.446;-1.930;2023-05-10T05:32:18;99794.64844;;;;
44734;BME280;30462;52.446;-1.930;2023-05-10T05:33:18;99796.82031;;;;
44734;BME280;30462;52.446;-1.930;2023-05-10T05:34:18;99797.09375;;;;
44734;BME280;30462;52.446;-1.930;2023-05-10T05:35:18;99794.85547;;;;
44734;BME280;30462;52.446;-1.930;2023-05-10T05:36:18;99795.11719;;;;
44734;BME280;30462;52.446;-1.930;2023-05-10T05:37:19;99796.65234;;;;
44734;BME280;30462;52.446;-1.930;2023-05-10T05:38:18;99796.41797;;;;
44734;BME280;30462;52.446;-1.930;2023-05-10T05:39:18;99800.25781;;;;
44734;BME280;30462;52.446;-1.930;2023-05-10T05:40:18;99799.96875;;;;
44734;BME280;30462;52.446;-1.930;2023-05-10T05:41:17;99802.03516;;;;
44734;BME280;30462;52.446;-1.930;2023-05-10T05:42:17;99803.51172;;;;
44734;BME280;30462;52.446;-1.930;2023-05-10T05:43:18;99806.07031;;;;
44734;BME280;30462;52.446;-1.930;2023-05-10T05:44:18;99807.05859;;;;
44734;BME280;30462;52.446;-1.930;2023-05-10T05:45:18;99806.875;;;;
44734;BME280;30462;52.446;-1.930;2023-05-10T05:46:17;99810.21484;;;;
44734;BME280;30462;52.446;-1.930;2023-05-10T05:47:17;99811.90625;;;;
44734;BME280;30462;52.446;-1.930;2023-05-10T05:48:18;99812.27344;;;;
44734;BME280;30462;52.446;-1.930;2023-05-10T05:49:18;99812.5;;;;
44734;BME280;30462;52.446;-1.930;2023-05-10T05:50:18;99813.51953;;;;
44734;BME280;30462;52.446;-1.930;2023-05-10T05:51:17;99817.99219;;;;
44734;BME280;30462;52.446;-1.930;2023-05-10T05:52:18;99817.15625;;;;
44734;BME280;30462;52.446;-1.930;2023-05-10T05:53:18;99815.85156;;;;
44734;BME280;30462;52.446;-1.930;2023-05-10T05:54:18;99815.28516;;;;
44734;BME280;30462;52.446;-1.930;2023-05-10T05:55:18;99812.66406;;;;
44734;BME280;30462;52.446;-1.930;2023-05-10T05:56:18;99814.83594;;;;